Time;durP1;ratioP1;P1;durP2;ratioP2;P2;SDS_P1;SDS_P2;PMS_P1;PMS_P2;Temp;Humidity;BMP_temperature;BMP_pressure;BME280_temperature;BME280_humidity;BME280_pressure;Samples;Min_cycle;Max_cycle;Signal;HPM_P1;HPM_P2
2021/07/14 00:02:06;;;;;;;17.67;14.13;;;16.90;99.90;;;;;;5033246;28;20025;-55
2021/07/14 00:04:33;;;;;;;22.63;14.93;;;16.90;99.90;;;;;;5033243;28;20025;-55
2021/07/14 00:06:58;;;;;;;22.27;13.77;;;16.90;99.90;;;;;;5033143;28;20059;-55
2021/07/14 00:09:24;;;;;;;23.20;14.15;;;16.80;99.90;;;;;;5032034;28;20053;-55
2021/07/14 00:12:01;;;;;;;21.40;13.70;;;16.80;99.90;;;;;;5033257;28;20483;-55
2021/07/14 00:14:57;;;;;;;20.30;13.13;;;16.80;99.90;;;;;;5033381;28;20052;-55
2021/07/14 00:22:34;;;;;;;19.40;12.80;;;16.80;99.90;;;;;;5033218;28;20040;-55
2021/07/14 00:25:01;;;;;;;24.55;12.48;;;16.70;99.90;;;;;;5031685;28;20033;-55
2021/07/14 00:27:26;;;;;;;22.08;12.15;;;16.70;99.90;;;;;;5031706;28;20031;-55
2021/07/14 00:29:56;;;;;;;16.77;11.52;;;16.70;99.90;;;;;;5032856;28;20453;-56
2021/07/14 00:32:23;;;;;;;18.23;11.45;;;16.70;99.90;;;;;;5032757;28;20101;-56
2021/07/14 00:34:49;;;;;;;18.27;11.23;;;16.70;99.90;;;;;;5032358;28;20045;-56
2021/07/14 00:37:15;;;;;;;20.45;11.90;;;16.70;99.90;;;;;;5033157;28;20031;-56
2021/07/14 00:39:42;;;;;;;20.00;12.45;;;16.70;99.90;;;;;;5031347;28;20422;-56
2021/07/14 00:42:09;;;;;;;18.48;12.20;;;16.70;99.90;;;;;;5032521;28;20025;-56
2021/07/14 00:44:34;;;;;;;24.38;11.38;;;16.70;99.90;;;;;;5032887;28;20425;-56
2021/07/14 00:47:01;;;;;;;19.92;11.60;;;16.80;99.90;;;;;;5032586;28;20034;-56
2021/07/14 00:49:28;;;;;;;19.20;10.93;;;16.80;99.90;;;;;;5032324;28;20032;-56
2021/07/14 00:51:54;;;;;;;15.57;11.55;;;16.80;99.90;;;;;;5032449;28;20100;-55
2021/07/14 00:54:20;;;;;;;16.13;11.48;;;16.70;99.90;;;;;;5030431;28;20037;-56
2021/07/14 00:56:47;;;;;;;19.60;11.50;;;16.80;99.90;;;;;;5032191;28;20082;-55
2021/07/14 00:59:12;;;;;;;21.33;11.05;;;16.80;99.90;;;;;;5032296;28;20017;-55
2021/07/14 01:01:38;;;;;;;13.90;10.20;;;16.70;99.90;;;;;;5030827;28;20460;-55
2021/07/14 01:04:23;;;;;;;21.35;10.80;;;16.70;99.90;;;;;;5032209;28;20059;-55
2021/07/14 01:07:15;;;;;;;18.40;10.23;;;16.70;99.90;;;;;;5032182;28;20072;-56
2021/07/14 01:09:58;;;;;;;20.38;10.52;;;16.70;99.90;;;;;;5032102;28;20060;-55
2021/07/14 01:12:39;;;;;;;14.65;10.48;;;16.70;99.90;;;;;;5030655;28;20022;-56
2021/07/14 01:15:13;;;;;;;18.48;11.40;;;16.80;99.90;;;;;;5032157;28;20200;-56
2021/07/14 01:18:00;;;;;;;16.38;10.40;;;16.80;99.90;;;;;;5032352;28;20060;-56
2021/07/14 01:20:28;;;;;;;17.15;10.68;;;16.70;99.90;;;;;;5014622;28;20109;-56
2021/07/14 01:22:57;;;;;;;16.48;11.07;;;16.70;99.90;;;;;;5031679;28;20021;-56
2021/07/14 01:25:45;;;;;;;18.05;11.20;;;16.70;99.90;;;;;;5031735;28;20044;-56
2021/07/14 01:28:12;;;;;;;17.33;12.18;;;16.70;99.90;;;;;;5031755;28;20022;-56
2021/07/14 01:30:40;;;;;;;18.80;11.73;;;16.80;99.90;;;;;;5030342;28;20259;-56
2021/07/14 01:33:08;;;;;;;18.73;11.93;;;16.70;99.90;;;;;;5031495;28;20021;-56
2021/07/14 01:35:38;;;;;;;20.40;11.85;;;16.70;99.90;;;;;;5031470;28;20473;-55
2021/07/14 01:38:05;;;;;;;22.60;13.13;;;16.70;99.90;;;;;;5031688;28;20017;-55
2021/07/14 01:40:32;;;;;;;19.77;12.30;;;16.70;99.90;;;;;;5031521;28;20021;-55
2021/07/14 01:43:00;;;;;;;18.10;12.63;;;16.80;99.90;;;;;;5031824;28;20018;-55
2021/07/14 01:45:31;;;;;;;20.35;12.85;;;16.70;99.90;;;;;;5031697;28;20056;-56
2021/07/14 01:47:59;;;;;;;23.70;13.07;;;16.70;99.90;;;;;;5031519;28;20025;-56
2021/07/14 01:50:28;;;;;;;23.50;13.95;;;16.60;99.90;;;;;;5031312;28;20072;-55
2021/07/14 01:52:54;;;;;;;23.17;13.10;;;16.60;99.90;;;;;;5031237;28;20026;-56
2021/07/14 01:55:22;;;;;;;22.40;13.98;;;16.60;99.90;;;;;;5030013;28;20112;-55
2021/07/14 01:57:51;;;;;;;22.85;12.60;;;16.60;99.90;;;;;;5031281;28;20032;-56
2021/07/14 02:00:17;;;;;;;27.80;14.18;;;16.50;99.90;;;;;;5031417;28;20021;-56
2021/07/14 02:05:16;;;;;;;;;;;16.50;99.90;;;;;;5031706;28;20022;-57
2021/07/14 02:07:41;;;;;;;18.90;12.20;;;16.50;99.90;;;;;;5031228;28;19916;-57
2021/07/14 02:10:08;;;;;;;19.17;12.05;;;16.50;99.90;;;;;;5031412;28;20116;-56
2021/07/14 02:12:37;;;;;;;19.77;13.00;;;16.50;99.90;;;;;;5031053;28;20028;-56
2021/07/14 02:15:08;;;;;;;19.77;13.07;;;16.50;99.90;;;;;;5029890;28;20029;-57
2021/07/14 02:17:38;;;;;;;21.20;12.82;;;16.50;99.90;;;;;;5031034;28;20501;-56
2021/07/14 02:20:11;;;;;;;19.90;13.60;;;16.50;99.90;;;;;;5031241;28;20040;-56
2021/07/14 02:22:37;;;;;;;;;;;16.50;99.90;;;;;;5031671;28;20506;-56
2021/07/14 02:25:04;;;;;;;22.20;14.32;;;16.50;99.90;;;;;;5031088;28;19909;-57
2021/07/14 02:27:30;;;;;;;23.23;14.40;;;16.40;99.90;;;;;;5030953;28;20021;-57
2021/07/14 02:29:57;;;;;;;22.23;13.82;;;16.50;99.90;;;;;;5029717;28;20013;-57
2021/07/14 02:32:23;;;;;;;21.25;14.93;;;16.40;99.90;;;;;;5030883;28;20080;-57
2021/07/14 02:34:52;;;;;;;22.92;14.98;;;16.50;99.90;;;;;;5030740;28;20522;-56
2021/07/14 02:37:52;;;;;;;23.15;15.35;;;16.50;99.90;;;;;;5029545;28;20402;-56
2021/07/14 02:40:28;;;;;;;21.30;14.00;;;16.50;99.90;;;;;;5030668;28;20022;-56
2021/07/14 02:42:57;;;;;;;29.40;15.65;;;16.50;99.90;;;;;;5031116;28;20359;-56
2021/07/14 02:45:23;;;;;;;26.27;15.32;;;16.50;99.90;;;;;;5031096;28;20394;-56
2021/07/14 02:47:50;;;;;;;21.70;13.95;;;16.50;99.90;;;;;;5030949;28;20029;-56
2021/07/14 02:50:20;;;;;;;20.88;14.90;;;16.50;99.90;;;;;;5030722;28;20024;-56
2021/07/14 02:52:49;;;;;;;26.15;15.68;;;16.60;99.90;;;;;;5029314;28;20026;-56
2021/07/14 02:55:19;;;;;;;26.58;15.40;;;16.60;99.90;;;;;;5030700;28;20494;-56
2021/07/14 02:57:48;;;;;;;23.70;15.77;;;16.60;99.90;;;;;;5030574;28;20051;-56
2021/07/14 03:00:14;;;;;;;27.25;16.58;;;16.60;99.90;;;;;;5030591;28;20032;-56
2021/07/14 03:02:41;;;;;;;27.63;17.25;;;16.60;99.90;;;;;;5030670;28;20026;-56
2021/07/14 03:05:07;;;;;;;29.15;15.82;;;16.60;99.90;;;;;;5030542;28;20029;-56
2021/07/14 03:07:34;;;;;;;35.78;17.60;;;16.60;99.90;;;;;;5029214;28;20017;-56
2021/07/14 03:10:00;;;;;;;27.83;16.75;;;16.60;99.90;;;;;;5030640;28;20072;-56
2021/07/14 03:12:27;;;;;;;29.02;16.27;;;16.60;99.90;;;;;;5030624;28;20108;-56
2021/07/14 03:14:58;;;;;;;23.90;15.98;;;16.60;99.90;;;;;;5030691;28;20029;-56
2021/07/14 03:17:29;;;;;;;29.73;16.13;;;16.60;99.90;;;;;;5031098;28;20033;-56
2021/07/14 03:19:55;;;;;;;23.25;15.55;;;16.60;99.90;;;;;;5034130;28;20493;-56
2021/07/14 03:22:23;;;;;;;28.42;16.42;;;16.70;99.90;;;;;;5034194;28;20033;-56
2021/07/14 03:24:50;;;;;;;25.15;16.27;;;16.70;99.90;;;;;;5034076;28;20028;-56
2021/07/14 03:27:15;;;;;;;27.13;16.55;;;16.70;99.90;;;;;;5034376;28;20033;-56
2021/07/14 03:29:43;;;;;;;25.27;15.02;;;16.60;99.90;;;;;;5033819;28;20022;-55
2021/07/14 03:32:10;;;;;;;27.80;15.77;;;16.60;99.90;;;;;;5033870;28;20029;-56
2021/07/14 03:34:36;;;;;;;29.30;16.42;;;16.70;99.90;;;;;;5033663;28;20046;-56
2021/07/14 03:37:06;;;;;;;22.35;15.10;;;16.60;99.90;;;;;;5033856;28;20496;-56
2021/07/14 03:39:40;;;;;;;27.92;16.15;;;16.70;99.90;;;;;;5034265;28;20029;-56
2021/07/14 03:42:11;;;;;;;25.60;14.63;;;16.60;99.90;;;;;;5033716;28;20062;-56
2021/07/14 03:44:39;;;;;;;28.25;15.95;;;16.60;99.90;;;;;;5032425;28;20108;-56
2021/07/14 03:47:05;;;;;;;24.88;15.60;;;16.60;99.90;;;;;;5032589;28;20454;-56
2021/07/14 03:49:34;;;;;;;26.08;15.35;;;16.60;99.90;;;;;;5032356;28;20022;-56
2021/07/14 03:52:00;;;;;;;25.23;14.55;;;16.60;99.90;;;;;;5033536;28;20037;-56
2021/07/14 03:54:30;;;;;;;27.05;15.68;;;16.60;99.90;;;;;;5032441;28;20029;-56
2021/07/14 03:56:56;;;;;;;28.75;15.13;;;16.60;99.90;;;;;;5033472;28;20532;-56
2021/07/14 03:59:22;;;;;;;26.05;14.73;;;16.60;99.90;;;;;;5033426;28;20029;-56
2021/07/14 04:01:49;;;;;;;32.30;15.05;;;16.60;99.90;;;;;;5033578;28;20029;-56
2021/07/14 04:04:15;;;;;;;26.35;15.07;;;16.60;99.90;;;;;;5033336;28;20025;-56
2021/07/14 04:06:45;;;;;;;30.80;15.45;;;16.60;99.90;;;;;;5033210;28;20100;-56
2021/07/14 04:09:16;;;;;;;26.73;15.68;;;16.60;99.90;;;;;;5033185;28;20026;-56
2021/07/14 04:11:47;;;;;;;23.73;14.90;;;16.60;99.90;;;;;;5033229;28;20028;-56
2021/07/14 04:14:12;;;;;;;27.45;15.82;;;16.60;99.90;;;;;;5033355;28;20548;-56
2021/07/14 04:16:38;;;;;;;24.02;14.68;;;16.60;99.90;;;;;;5032965;28;20116;-56
2021/07/14 04:19:04;;;;;;;29.15;16.77;;;16.60;99.90;;;;;;5033113;28;20406;-56
2021/07/14 04:21:30;;;;;;;30.77;17.58;;;16.60;99.90;;;;;;5032946;28;20033;-55
2021/07/14 04:23:56;;;;;;;33.65;18.30;;;16.60;99.90;;;;;;5032998;28;20057;-56
2021/07/14 04:26:22;;;;;;;33.38;17.95;;;16.60;99.90;;;;;;5032839;28;20083;-56
2021/07/14 04:28:48;;;;;;;31.85;18.52;;;16.60;99.90;;;;;;5031797;28;20026;-56
2021/07/14 04:31:14;;;;;;;36.22;18.75;;;16.60;99.90;;;;;;5032745;28;20025;-56
2021/07/14 04:33:41;;;;;;;33.38;18.38;;;16.60;99.90;;;;;;5032735;28;20045;-56
2021/07/14 04:36:08;;;;;;;32.38;18.48;;;16.60;99.90;;;;;;5032695;28;20021;-56
2021/07/14 04:38:35;;;;;;;32.88;18.80;;;16.60;99.90;;;;;;5032891;28;20390;-56
2021/07/14 04:41:01;;;;;;;27.95;18.67;;;16.60;99.90;;;;;;5032490;28;20083;-56
2021/07/14 04:43:27;;;;;;;33.15;19.35;;;16.50;99.90;;;;;;5032713;28;20030;-56
2021/07/14 04:45:53;;;;;;;33.90;18.42;;;16.60;99.90;;;;;;5032917;28;20056;-56
2021/07/14 04:48:18;;;;;;;27.83;17.80;;;16.60;99.90;;;;;;5032620;28;20375;-56
2021/07/14 04:50:44;;;;;;;32.70;20.17;;;16.60;99.90;;;;;;5031262;28;20032;-56
2021/07/14 04:53:09;;;;;;;34.55;19.30;;;16.50;99.90;;;;;;5032567;28;20463;-56
2021/07/14 04:55:35;;;;;;;40.72;20.25;;;16.50;99.90;;;;;;5032576;28;20068;-55
2021/07/14 04:58:01;;;;;;;33.30;19.17;;;16.50;99.90;;;;;;5032370;28;20143;-55
2021/07/14 05:00:26;;;;;;;33.70;19.45;;;16.50;99.90;;;;;;5031089;28;20025;-56
2021/07/14 05:02:52;;;;;;;43.47;20.45;;;16.60;99.90;;;;;;5032353;28;20394;-56
2021/07/14 05:05:18;;;;;;;33.38;19.83;;;16.60;99.90;;;;;;5032170;28;20026;-56
2021/07/14 05:07:45;;;;;;;32.13;19.42;;;16.60;99.90;;;;;;5032475;28;20095;-56
2021/07/14 05:10:11;;;;;;;29.85;19.50;;;16.60;99.90;;;;;;5032036;28;20382;-56
2021/07/14 05:12:37;;;;;;;36.53;20.10;;;16.60;99.90;;;;;;5030825;28;20026;-56
2021/07/14 05:15:03;;;;;;;30.83;19.77;;;16.60;99.90;;;;;;5032097;28;20044;-56
2021/07/14 05:17:29;;;;;;;33.72;20.60;;;16.60;99.90;;;;;;5032016;28;20453;-56
2021/07/14 05:19:55;;;;;;;36.15;21.15;;;16.60;99.90;;;;;;5032097;28;20029;-56
2021/07/14 05:22:21;;;;;;;33.70;20.58;;;16.60;99.90;;;;;;5031859;28;20061;-56
2021/07/14 05:24:47;;;;;;;31.83;20.20;;;16.60;99.90;;;;;;5031971;28;20525;-56
2021/07/14 05:27:13;;;;;;;33.45;20.23;;;16.60;99.90;;;;;;5031731;28;20069;-56
2021/07/14 05:29:38;;;;;;;35.15;19.52;;;16.60;99.90;;;;;;5030619;28;20112;-56
2021/07/14 05:32:05;;;;;;;30.85;18.48;;;16.60;99.90;;;;;;5031719;28;20222;-56
2021/07/14 05:34:31;;;;;;;29.80;18.90;;;16.60;99.90;;;;;;5013857;28;20132;-56
2021/07/14 05:36:58;;;;;;;32.95;17.85;;;16.70;99.90;;;;;;5030547;28;20471;-56
2021/07/14 05:39:23;;;;;;;29.23;17.55;;;16.70;99.90;;;;;;5031542;28;20029;-55
2021/07/14 05:41:49;;;;;;;29.92;17.95;;;16.70;99.90;;;;;;5031200;28;20024;-56
2021/07/14 05:44:16;;;;;;;26.80;16.67;;;16.60;99.90;;;;;;5031478;28;20025;-56
2021/07/14 05:46:42;;;;;;;26.00;17.55;;;16.60;99.90;;;;;;5031442;28;20018;-56
2021/07/14 05:49:07;;;;;;;24.70;16.83;;;16.60;99.90;;;;;;5031392;28;20032;-56
2021/07/14 05:51:33;;;;;;;24.88;15.15;;;16.60;99.90;;;;;;5031575;28;20044;-56
2021/07/14 05:53:59;;;;;;;28.02;16.92;;;16.70;99.90;;;;;;5031558;28;20049;-55
2021/07/14 05:56:26;;;;;;;29.42;18.20;;;16.70;99.90;;;;;;5031349;28;20052;-56
2021/07/14 05:58:52;;;;;;;26.88;16.88;;;16.60;99.90;;;;;;5031227;28;20022;-56
2021/07/14 06:01:18;;;;;;;25.05;16.73;;;16.60;99.90;;;;;;5031198;28;20018;-55
2021/07/14 06:03:44;;;;;;;29.63;17.33;;;16.60;99.90;;;;;;5031311;28;20314;-55
2021/07/14 06:06:09;;;;;;;28.38;18.08;;;16.60;99.90;;;;;;5031058;28;20021;-55
2021/07/14 06:08:35;;;;;;;28.67;17.17;;;16.60;99.90;;;;;;5031212;28;20017;-55
2021/07/14 06:11:01;;;;;;;24.33;16.80;;;16.60;99.90;;;;;;5031087;28;20029;-55
2021/07/14 06:13:26;;;;;;;28.50;16.08;;;16.70;99.90;;;;;;5031285;28;20026;-55
2021/07/14 06:15:52;;;;;;;30.17;17.10;;;16.70;99.90;;;;;;5030971;28;20105;-56
2021/07/14 06:18:17;;;;;;;28.60;16.67;;;16.70;99.90;;;;;;5031068;28;20205;-56
2021/07/14 06:20:43;;;;;;;29.23;16.15;;;16.60;99.90;;;;;;5030909;28;20013;-56
2021/07/14 06:23:09;;;;;;;24.75;15.93;;;16.60;99.90;;;;;;5031102;28;20029;-56
2021/07/14 06:25:35;;;;;;;25.83;15.52;;;16.60;99.90;;;;;;5031250;28;20132;-56
2021/07/14 06:28:02;;;;;;;23.13;15.63;;;16.60;99.90;;;;;;5031123;28;20021;-55
2021/07/14 06:30:28;;;;;;;28.05;15.30;;;16.60;99.90;;;;;;5029790;28;20057;-55
2021/07/14 06:32:54;;;;;;;23.50;14.32;;;16.60;99.90;;;;;;5031038;28;20028;-55
2021/07/14 06:35:21;;;;;;;21.25;14.43;;;16.60;99.90;;;;;;5030768;28;20464;-55
2021/07/14 06:37:48;;;;;;;26.50;14.32;;;16.50;99.90;;;;;;5031326;28;20021;-55
2021/07/14 06:40:14;;;;;;;22.48;13.77;;;16.50;99.90;;;;;;5030790;28;20506;-55
2021/07/14 06:42:41;;;;;;;25.25;14.13;;;16.50;99.90;;;;;;5030964;28;20703;-55
2021/07/14 06:45:08;;;;;;;20.98;13.32;;;16.50;99.90;;;;;;5031413;28;20370;-56
2021/07/14 06:47:35;;;;;;;21.83;13.15;;;16.60;99.90;;;;;;5030891;28;20055;-56
2021/07/14 06:50:02;;;;;;;23.10;13.10;;;16.50;99.90;;;;;;5030896;28;20063;-55
2021/07/14 06:52:28;;;;;;;19.92;12.98;;;16.60;99.90;;;;;;5031599;28;20020;-55
2021/07/14 06:54:53;;;;;;;22.40;12.95;;;16.60;99.90;;;;;;5035132;28;20381;-55
2021/07/14 06:57:19;;;;;;;19.67;12.73;;;16.60;99.90;;;;;;5034764;28;20030;-55
2021/07/14 06:59:45;;;;;;;17.45;12.82;;;16.60;99.90;;;;;;5034834;28;20056;-55
2021/07/14 07:02:10;;;;;;;16.23;11.98;;;16.60;99.90;;;;;;5034736;28;20467;-55
2021/07/14 07:04:36;;;;;;;17.23;12.90;;;16.60;99.90;;;;;;5033490;28;20066;-55
2021/07/14 07:07:01;;;;;;;19.52;13.32;;;16.50;99.90;;;;;;5034127;28;20036;-55
2021/07/14 07:09:27;;;;;;;17.00;12.23;;;16.60;99.90;;;;;;5032984;28;20086;-56
2021/07/14 07:11:53;;;;;;;16.40;11.88;;;16.60;99.90;;;;;;5033715;28;20112;-55
2021/07/14 07:14:19;;;;;;;17.42;12.20;;;16.50;99.90;;;;;;5033700;28;20064;-55
2021/07/14 07:16:45;;;;;;;16.77;12.05;;;16.50;99.90;;;;;;5033604;28;20059;-55
2021/07/14 07:19:10;;;;;;;18.98;12.70;;;16.50;99.90;;;;;;5033017;28;20025;-55
2021/07/14 07:21:36;;;;;;;17.27;12.30;;;16.50;99.90;;;;;;5033830;28;20498;-55
2021/07/14 07:24:03;;;;;;;16.55;12.88;;;16.50;99.90;;;;;;5032747;28;20095;-55
2021/07/14 07:26:28;;;;;;;19.48;14.20;;;16.50;99.90;;;;;;5033679;28;20061;-55
2021/07/14 07:29:00;;;;;;;21.48;14.77;;;16.50;99.90;;;;;;5033894;28;20407;-55
2021/07/14 07:31:25;;;;;;;24.58;16.13;;;16.50;99.90;;;;;;5032879;28;20501;-55
2021/07/14 07:33:51;;;;;;;21.23;14.68;;;16.50;99.90;;;;;;5033769;28;20037;-55
2021/07/14 07:36:17;;;;;;;22.67;14.77;;;16.60;99.90;;;;;;5033637;28;20551;-55
2021/07/14 07:38:43;;;;;;;21.67;14.88;;;16.60;99.90;;;;;;5034723;28;20029;-56
2021/07/14 07:41:10;;;;;;;22.25;15.93;;;16.60;99.90;;;;;;5032876;28;20055;-55
2021/07/14 07:43:36;;;;;;;18.38;14.63;;;16.50;99.90;;;;;;5033672;28;20031;-55
2021/07/14 07:46:02;;;;;;;22.25;15.75;;;16.60;99.90;;;;;;5033175;28;20030;-56
2021/07/14 07:48:28;;;;;;;20.67;14.77;;;16.60;99.90;;;;;;5032945;28;20079;-55
2021/07/14 07:50:54;;;;;;;23.38;16.02;;;16.50;99.90;;;;;;5033528;28;20538;-55
2021/07/14 07:53:21;;;;;;;21.02;15.40;;;16.60;99.90;;;;;;5033485;28;20092;-56
2021/07/14 07:55:47;;;;;;;29.40;18.70;;;16.50;99.90;;;;;;5033231;28;20083;-55
2021/07/14 07:58:14;;;;;;;31.83;20.58;;;16.50;99.90;;;;;;5035498;28;20028;-55
2021/07/14 08:00:40;;;;;;;31.63;20.00;;;16.50;99.90;;;;;;5034167;28;20057;-55
2021/07/14 08:03:06;;;;;;;28.02;19.80;;;16.60;99.90;;;;;;5037035;28;20449;-55
2021/07/14 08:05:32;;;;;;;24.15;16.58;;;16.60;99.90;;;;;;5046101;28;20029;-55
2021/07/14 08:07:57;;;;;;;25.52;15.65;;;16.60;99.90;;;;;;5033392;28;20036;-56
2021/07/14 08:10:23;;;;;;;20.30;14.70;;;16.50;99.90;;;;;;5033596;28;20053;-56
2021/07/14 08:12:49;;;;;;;20.02;14.75;;;16.60;99.90;;;;;;5034052;28;20037;-57
2021/07/14 08:15:15;;;;;;;20.58;14.60;;;16.50;99.90;;;;;;5033726;28;20025;-56
2021/07/14 08:17:40;;;;;;;20.08;13.95;;;16.60;99.90;;;;;;5032361;28;20029;-55
2021/07/14 08:20:08;;;;;;;20.25;13.57;;;16.50;99.90;;;;;;5033872;28;20029;-55
2021/07/14 08:22:34;;;;;;;22.83;13.60;;;16.50;99.90;;;;;;5033925;28;20079;-55
2021/07/14 08:25:00;;;;;;;18.88;13.50;;;16.60;99.90;;;;;;5033943;28;20447;-55
2021/07/14 08:27:26;;;;;;;22.80;14.65;;;16.60;99.90;;;;;;5032448;28;20033;-55
2021/07/14 08:29:59;;;;;;;21.00;14.82;;;16.70;99.90;;;;;;5031958;28;20441;-56
2021/07/14 08:32:28;;;;;;;23.40;14.68;;;16.60;99.90;;;;;;5033227;28;20041;-55
2021/07/14 08:34:55;;;;;;;24.33;13.60;;;16.70;99.90;;;;;;5033199;28;20049;-56
2021/07/14 08:37:22;;;;;;;19.45;13.20;;;16.80;99.90;;;;;;5032388;28;20035;-55
2021/07/14 08:39:49;;;;;;;22.55;14.43;;;16.90;99.90;;;;;;5031824;28;20026;-55
2021/07/14 08:42:16;;;;;;;19.85;13.77;;;16.80;99.90;;;;;;5033533;28;20030;-56
2021/07/14 08:44:42;;;;;;;21.17;13.38;;;16.70;99.90;;;;;;5033765;28;20014;-55
2021/07/14 08:47:09;;;;;;;24.20;13.68;;;16.70;99.90;;;;;;5033141;28;20026;-55
2021/07/14 08:49:40;;;;;;;24.25;16.30;;;16.80;99.90;;;;;;5033738;28;20545;-56
2021/07/14 08:52:07;;;;;;;24.73;17.17;;;16.90;99.90;;;;;;5032867;28;20459;-55
2021/07/14 08:54:35;;;;;;;24.02;16.30;;;16.90;99.90;;;;;;5032362;28;20124;-55
2021/07/14 08:57:01;;;;;;;22.08;15.57;;;16.90;99.90;;;;;;5033022;28;20025;-55
2021/07/14 08:59:26;;;;;;;21.95;15.27;;;16.80;99.90;;;;;;5031873;28;20033;-56
2021/07/14 09:01:52;;;;;;;21.63;13.20;;;16.80;99.90;;;;;;5032215;28;20044;-56
2021/07/14 09:04:18;;;;;;;19.45;10.77;;;16.80;99.90;;;;;;5031488;28;20060;-56
2021/07/14 09:06:43;;;;;;;18.13;10.10;;;16.80;99.90;;;;;;5032795;28;20025;-55
2021/07/14 09:09:09;;;;;;;17.70;10.38;;;16.70;99.90;;;;;;5033059;28;20126;-56
2021/07/14 09:11:59;;;;;;;15.43;10.10;;;16.70;99.90;;;;;;5033137;28;20049;-56
2021/07/14 09:14:34;;;;;;;17.58;10.48;;;16.70;99.90;;;;;;5029001;28;20488;-56
2021/07/14 09:17:24;;;;;;;14.93;9.65;;;16.80;99.90;;;;;;5032206;28;20439;-55
2021/07/14 09:20:00;;;;;;;12.38;8.57;;;16.80;99.90;;;;;;5032204;28;20040;-55
2021/07/14 09:22:27;;;;;;;14.82;9.40;;;16.80;99.90;;;;;;5032660;28;20558;-56
2021/07/14 09:24:57;;;;;;;14.98;9.98;;;16.70;99.90;;;;;;5031540;28;20060;-55
2021/07/14 09:27:31;;;;;;;13.77;10.07;;;16.70;99.90;;;;;;5032897;28;20029;-55
2021/07/14 09:30:09;;;;;;;19.83;10.80;;;16.70;99.90;;;;;;5032412;28;20478;-55
2021/07/14 09:32:58;;;;;;;18.13;10.93;;;16.70;99.90;;;;;;5032175;28;20038;-55
2021/07/14 09:35:34;;;;;;;16.25;11.13;;;16.70;99.90;;;;;;5030915;28;20364;-55
2021/07/14 09:38:08;;;;;;;15.77;11.65;;;16.70;99.90;;;;;;5032706;28;20030;-55
2021/07/14 09:40:34;;;;;;;19.63;12.50;;;16.70;99.90;;;;;;5030791;28;20116;-55
2021/07/14 09:43:02;;;;;;;16.52;12.23;;;16.70;99.90;;;;;;5031327;28;20104;-55
2021/07/14 09:45:48;;;;;;;18.33;12.18;;;16.70;99.90;;;;;;5031225;28;20112;-55
2021/07/14 09:48:18;;;;;;;25.15;14.02;;;16.60;99.90;;;;;;5032595;28;20033;-55
2021/07/14 09:50:48;;;;;;;21.60;15.70;;;16.60;99.90;;;;;;5032454;28;20490;-55
2021/07/14 09:53:19;;;;;;;23.00;15.32;;;16.60;99.90;;;;;;5031767;28;20025;-55
2021/07/14 09:55:46;;;;;;;21.30;15.20;;;16.60;99.90;;;;;;5030401;28;20116;-56
2021/07/14 09:58:16;;;;;;;25.85;16.92;;;16.60;99.90;;;;;;5032046;28;20026;-55
2021/07/14 10:00:51;;;;;;;24.77;16.73;;;16.60;99.90;;;;;;5030214;28;20029;-55
2021/07/14 10:03:20;;;;;;;32.45;22.33;;;16.60;99.90;;;;;;5030748;28;20021;-55
2021/07/14 10:05:46;;;;;;;28.30;20.88;;;16.60;99.90;;;;;;5036788;28;20021;-56
2021/07/14 10:08:20;;;;;;;33.00;22.52;;;16.60;99.90;;;;;;5032894;28;20032;-55
2021/07/14 10:10:48;;;;;;;30.23;23.00;;;16.60;99.90;;;;;;5030054;28;20355;-55
2021/07/14 10:13:14;;;;;;;31.45;20.73;;;16.60;99.90;;;;;;5031035;28;20032;-55
2021/07/14 10:15:40;;;;;;;28.52;18.33;;;16.60;99.90;;;;;;5031492;28;20033;-56
2021/07/14 10:18:12;;;;;;;25.17;16.65;;;16.60;99.90;;;;;;5013192;28;20382;-56
2021/07/14 10:20:40;;;;;;;24.35;15.70;;;16.60;99.90;;;;;;5031136;28;20448;-55
2021/07/14 10:23:16;;;;;;;26.05;15.50;;;16.50;99.90;;;;;;5030829;28;20053;-55
2021/07/14 10:25:43;;;;;;;19.52;14.13;;;16.60;99.90;;;;;;5031508;28;20029;-55
2021/07/14 10:28:12;;;;;;;25.08;13.75;;;16.60;99.90;;;;;;5033359;28;20037;-56
2021/07/14 10:30:40;;;;;;;20.13;14.52;;;16.60;99.90;;;;;;5035174;28;20029;-55
2021/07/14 10:33:09;;;;;;;23.40;15.15;;;16.60;99.90;;;;;;5035256;28;20022;-56
2021/07/14 10:35:41;;;;;;;19.83;14.20;;;16.60;99.90;;;;;;5034885;28;20106;-55
2021/07/14 10:38:15;;;;;;;25.38;15.02;;;16.70;99.90;;;;;;5035410;28;20025;-55
2021/07/14 10:40:43;;;;;;;22.90;14.75;;;16.60;99.90;;;;;;5034785;28;20024;-55
2021/07/14 10:43:09;;;;;;;22.35;13.75;;;16.60;99.90;;;;;;5035251;28;20021;-55
2021/07/14 10:45:36;;;;;;;20.63;14.18;;;16.60;99.90;;;;;;5034502;28;20083;-55
2021/07/14 10:48:02;;;;;;;20.45;13.30;;;16.70;99.90;;;;;;5034500;28;20530;-55
2021/07/14 10:50:28;;;;;;;21.60;14.38;;;16.70;99.90;;;;;;5033346;28;20061;-55
2021/07/14 10:52:54;;;;;;;25.27;14.52;;;16.70;99.90;;;;;;5034490;28;20096;-55
2021/07/14 10:55:23;;;;;;;20.42;13.80;;;16.70;99.90;;;;;;5034027;28;20029;-56
2021/07/14 10:57:51;;;;;;;22.38;13.23;;;16.70;99.90;;;;;;5034248;28;20061;-55
2021/07/14 11:00:17;;;;;;;20.60;12.77;;;16.70;99.90;;;;;;5033589;28;20025;-55
2021/07/14 11:02:46;;;;;;;19.73;13.68;;;16.70;99.90;;;;;;5034971;28;20025;-55
2021/07/14 11:05:14;;;;;;;21.67;13.32;;;16.80;99.90;;;;;;5035166;28;20429;-56
2021/07/14 11:07:45;;;;;;;17.73;12.65;;;16.80;99.90;;;;;;5035079;28;20509;-55
2021/07/14 11:10:39;;;;;;;18.48;12.90;;;16.70;99.90;;;;;;5035051;28;20026;-55
2021/07/14 11:13:28;;;;;;;19.38;12.50;;;16.80;99.90;;;;;;5033417;28;20034;-55
2021/07/14 11:15:56;;;;;;;18.33;12.57;;;16.80;99.90;;;;;;5036324;28;20454;-55
2021/07/14 11:18:31;;;;;;;16.63;12.00;;;16.90;99.90;;;;;;5037726;28;20037;-55
2021/07/14 11:20:57;;;;;;;14.35;10.68;;;16.90;99.90;;;;;;5043932;28;20040;-55
2021/07/14 11:23:25;;;;;;;17.50;13.10;;;17.00;99.90;;;;;;5035131;28;20112;-55
2021/07/14 11:25:55;;;;;;;24.95;15.60;;;17.10;99.90;;;;;;5033688;28;20026;-55
2021/07/14 11:28:22;;;;;;;18.67;13.13;;;17.00;99.90;;;;;;5020167;28;20398;-56
2021/07/14 11:30:50;;;;;;;20.02;12.90;;;17.10;99.90;;;;;;5034072;28;20064;-56
2021/07/14 11:33:32;;;;;;;18.08;11.48;;;17.20;99.90;;;;;;5023551;28;20049;-56
2021/07/14 11:36:10;;;;;;;15.18;9.52;;;17.20;99.90;;;;;;5033856;28;20126;-56
2021/07/14 11:38:44;;;;;;;15.18;10.43;;;17.20;99.90;;;;;;5021030;28;20116;-56
2021/07/14 11:41:19;;;;;;;14.50;9.32;;;17.20;99.90;;;;;;5034469;28;20017;-56
2021/07/14 11:43:45;;;;;;;11.82;7.05;;;17.20;99.90;;;;;;5018061;28;20026;-56
2021/07/14 11:46:14;;;;;;;11.27;6.82;;;17.30;99.90;;;;;;5033241;28;20355;-56
2021/07/14 11:48:47;;;;;;;10.00;6.70;;;17.40;99.90;;;;;;5033110;28;20079;-55
2021/07/14 11:51:16;;;;;;;11.30;6.47;;;17.40;99.90;;;;;;5034634;28;20079;-56
2021/07/14 11:53:49;;;;;;;8.48;6.88;;;17.30;99.90;;;;;;5034582;28;20120;-55
2021/07/14 11:56:45;;;;;;;13.27;6.50;;;17.30;99.90;;;;;;5034351;28;20025;-56
2021/07/14 11:59:24;;;;;;;9.75;6.55;;;17.30;99.90;;;;;;5019344;28;20041;-56
2021/07/14 12:02:20;;;;;;;12.10;7.70;;;17.30;99.90;;;;;;5033460;28;20069;-55
2021/07/14 12:05:07;;;;;;;11.75;8.15;;;17.40;99.90;;;;;;5022402;28;20040;-55
2021/07/14 12:07:41;;;;;;;11.05;7.78;;;17.40;99.90;;;;;;5032935;28;20059;-56
2021/07/14 12:10:17;;;;;;;10.57;6.82;;;17.60;99.90;;;;;;5032256;28;20422;-56
2021/07/14 12:12:47;;;;;;;10.10;6.68;;;17.70;99.90;;;;;;5032694;28;20325;-56
2021/07/14 12:15:13;;;;;;;7.55;5.88;;;17.80;99.90;;;;;;5032698;28;20136;-55
2021/07/14 12:17:38;;;;;;;9.63;5.68;;;17.90;99.90;;;;;;5033361;28;20072;-56
2021/07/14 12:20:05;;;;;;;13.65;6.00;;;17.90;99.90;;;;;;5033999;28;20053;-56
2021/07/14 12:22:33;;;;;;;9.02;5.90;;;18.10;99.90;;;;;;5032475;28;20489;-55
2021/07/14 12:25:02;;;;;;;7.28;5.53;;;18.10;99.90;;;;;;5033990;28;20484;-55
2021/07/14 12:27:35;;;;;;;8.75;5.20;;;18.10;99.90;;;;;;5033277;28;20043;-56
2021/07/14 12:30:09;;;;;;;7.88;4.88;;;18.10;99.90;;;;;;5027775;28;20038;-55
2021/07/14 12:32:38;;;;;;;5.15;4.43;;;18.10;99.90;;;;;;5033402;28;20545;-56
2021/07/14 12:35:16;;;;;;;7.10;4.63;;;18.20;99.90;;;;;;5032873;28;20067;-56
2021/07/14 12:37:54;;;;;;;7.07;4.78;;;18.20;99.90;;;;;;5033417;28;20486;-55
2021/07/14 12:40:29;;;;;;;10.35;4.68;;;18.10;99.90;;;;;;5026257;28;20056;-55
2021/07/14 12:42:57;;;;;;;6.85;4.88;;;18.20;99.90;;;;;;5033300;28;20029;-56
2021/07/14 12:45:29;;;;;;;7.75;4.75;;;18.30;99.90;;;;;;5033477;28;20478;-55